createdAt,value
2022-11-25T00:00:00.008Z,97375.44
2022-11-25T00:05:02.706Z,97362.44
2022-11-25T00:10:08.609Z,97374.38
2022-11-25T00:15:11.520Z,97352.75
2022-11-25T00:20:14.329Z,97367.44
2022-11-25T00:25:18.502Z,97346.72
2022-11-25T00:30:21.451Z,97338.88
2022-11-25T00:35:24.176Z,97338.81
2022-11-25T00:40:28.250Z,97345.69
2022-11-25T00:45:31.587Z,97332.78
2022-11-25T00:50:34.323Z,97333.66
2022-11-25T00:55:52.294Z,97329.22
2022-11-25T01:00:55.088Z,97341.22
2022-11-25T01:06:02.019Z,97369.41
2022-11-25T01:11:08.596Z,97357.28
2022-11-25T01:16:14.052Z,97349.69
2022-11-25T01:21:18.728Z,97342.94
2022-11-25T01:26:24.815Z,97340.38
2022-11-25T01:31:29.855Z,97329.22
2022-11-25T01:36:32.854Z,97349.81
2022-11-25T01:41:37.152Z,97319.69
2022-11-25T01:46:58.662Z,97312.84
2022-11-25T01:52:05.901Z,97306.81
2022-11-25T01:57:13.298Z,97268.03
2022-11-25T02:02:16.876Z,97281.78
2022-11-25T02:07:26.409Z,97250.50
2022-11-25T02:12:31.227Z,97256.50
2022-11-25T02:17:34.366Z,97236.69
2022-11-25T02:22:47.968Z,97235.06
2022-11-25T02:27:54.266Z,97241.09
2022-11-25T02:32:57.507Z,97222.97
2022-11-25T02:38:05.375Z,97224.63
2022-11-25T02:43:09.846Z,97210.13
2022-11-25T02:48:12.666Z,97214.44
2022-11-25T02:53:16.299Z,97206.53
2022-11-25T02:58:20.584Z,97211.81
2022-11-25T03:03:23.414Z,97197.09
2022-11-25T03:08:26.209Z,97187.56
2022-11-25T03:13:31.429Z,97184.94
2022-11-25T03:18:34.673Z,97191.84
2022-11-25T03:23:37.364Z,97166.78
2022-11-25T03:28:41.433Z,97155.56
2022-11-25T03:33:45.064Z,97172.03
2022-11-25T03:38:47.798Z,97147.84
2022-11-25T03:43:51.948Z,97163.41
2022-11-25T03:48:54.709Z,97156.47
2022-11-25T03:53:57.507Z,97146.19
2022-11-25T03:59:02.359Z,97151.31
2022-11-25T04:04:05.686Z,97137.59
2022-11-25T04:09:09.264Z,97149.72
2022-11-25T04:14:14.555Z,97151.41
2022-11-25T04:19:17.250Z,97154.84
2022-11-25T04:24:20.203Z,97133.19
2022-11-25T04:29:24.623Z,97154.06
2022-11-25T04:34:27.547Z,97159.31
2022-11-25T04:39:30.449Z,97142.19
2022-11-25T04:44:38.196Z,97162.06
2022-11-25T04:49:41.838Z,97170.69
2022-11-25T04:54:44.653Z,97167.31
2022-11-25T04:59:49.103Z,97165.69
2022-11-25T05:04:54.250Z,97160.63
2022-11-25T05:09:57.979Z,97184.84
2022-11-25T05:15:11.628Z,97162.34
2022-11-25T05:20:15.815Z,97114.69
2022-11-25T05:25:20.767Z,97137.25
2022-11-25T05:30:42.456Z,97152.88
2022-11-25T05:35:45.678Z,97120.91
2022-11-25T05:40:48.437Z,97120.88
2022-11-25T05:45:54.828Z,97145.25
2022-11-25T05:51:00.871Z,97111.38
2022-11-25T05:56:06.614Z,97109.66
2022-11-25T06:01:32.124Z,97130.56
2022-11-25T06:06:35.561Z,97121.06
2022-11-25T06:11:38.373Z,97120.28
2022-11-25T06:16:43.239Z,97085.59
2022-11-25T06:22:07.574Z,97109.94
2022-11-25T06:27:11.386Z,97083.00
2022-11-25T06:32:16.404Z,97071.72
2022-11-25T06:37:27.543Z,97111.63
2022-11-25T06:42:30.317Z,97110.00
2022-11-25T06:47:34.568Z,97133.47
2022-11-25T06:52:37.700Z,97108.25
2022-11-25T06:57:40.458Z,97113.50
2022-11-25T07:02:48.576Z,97081.34
2022-11-25T07:07:51.793Z,97101.38
2022-11-25T07:12:54.790Z,97125.72
2022-11-25T07:17:58.927Z,97107.50
2022-11-25T07:23:01.734Z,97091.88
2022-11-25T07:28:04.846Z,97135.41
2022-11-25T07:33:09.320Z,97119.78
2022-11-25T07:38:12.344Z,97138.91
2022-11-25T07:43:15.084Z,97130.19
2022-11-25T07:48:20.721Z,97152.00
2022-11-25T07:53:23.536Z,97164.19
2022-11-25T07:58:26.216Z,97115.41
2022-11-25T08:03:30.354Z,97025.66
2022-11-25T08:08:33.057Z,96989.81
2022-11-25T08:13:36.303Z,97000.28
2022-11-25T08:18:40.687Z,97032.59
2022-11-25T08:23:44.277Z,97015.91
2022-11-25T08:28:47.975Z,97096.38
2022-11-25T08:33:52.250Z,97114.72
2022-11-25T08:38:57.681Z,97106.00
2022-11-25T08:44:01.867Z,97102.50
2022-11-25T08:49:07.828Z,97087.66
2022-11-25T08:54:10.495Z,97106.84
2022-11-25T08:59:13.563Z,97095.50
2022-11-25T09:04:17.575Z,97071.06
2022-11-25T09:09:20.370Z,97039.63
2022-11-25T09:14:23.286Z,97005.56
2022-11-25T09:19:27.339Z,96990.72
2022-11-25T09:24:30.178Z,96974.13
2022-11-25T09:29:32.874Z,96976.75
2022-11-25T09:34:37.404Z,96958.34
2022-11-25T09:39:40.519Z,96959.28
2022-11-25T09:45:11.431Z,96963.59
2022-11-25T09:50:22.059Z,96946.97
2022-11-25T09:55:26.154Z,96942.56
2022-11-25T10:00:37.187Z,96966.13
2022-11-25T10:05:47.235Z,96955.63
2022-11-25T10:10:52.744Z,96953.88
2022-11-25T10:15:56.079Z,96955.56
2022-11-25T10:21:00.186Z,96945.91
2022-11-25T10:26:10.147Z,96938.88
2022-11-25T10:31:17.890Z,96909.72
2022-11-25T10:36:26.131Z,96947.47
2022-11-25T10:41:31.964Z,96935.06
2022-11-25T10:47:11.569Z,96937.63
2022-11-25T10:52:13.204Z,96934.03
2022-11-25T10:57:19.616Z,96948.91
2022-11-25T11:02:26.016Z,96936.44
2022-11-25T11:07:33.074Z,96969.72
2022-11-25T11:12:35.935Z,96986.28
2022-11-25T11:17:38.861Z,96991.47
2022-11-25T11:22:50.413Z,97028.44
2022-11-25T11:27:53.128Z,97052.88
2022-11-25T11:32:59.239Z,97066.84
2022-11-25T11:38:10.950Z,97097.59
2022-11-25T11:43:26.311Z,97119.38
2022-11-25T11:48:39.300Z,97107.13
2022-11-25T11:53:49.985Z,97137.72
2022-11-25T11:59:20.203Z,97158.75
2022-11-25T12:04:27.979Z,97181.53
2022-11-25T12:09:33.809Z,97187.59
2022-11-25T12:14:42.659Z,97184.88
2022-11-25T12:19:52.028Z,97197.94
2022-11-25T12:25:03.107Z,97247.13
2022-11-25T12:30:08.101Z,97289.25
2022-11-25T12:35:20.480Z,97326.06
2022-11-25T12:40:29.534Z,97354.97
2022-11-25T12:45:32.326Z,97379.50
2022-11-25T12:50:46.319Z,97384.72
2022-11-25T12:55:50.338Z,97416.28
2022-11-25T13:01:20.776Z,97442.59
2022-11-25T13:06:34.723Z,97490.84
2022-11-25T13:12:00.399Z,97531.16
2022-11-25T13:17:03.875Z,97545.16
2022-11-25T13:22:11.506Z,97576.72
2022-11-25T13:27:31.385Z,97604.78
2022-11-25T13:32:43.778Z,97625.81
2022-11-25T13:37:46.657Z,97651.25
2022-11-25T13:42:51.250Z,97672.28
2022-11-25T13:47:55.327Z,97681.03
2022-11-25T13:53:00.416Z,97690.69
2022-11-25T13:58:21.158Z,97703.84
2022-11-25T14:03:51.286Z,97720.47
2022-11-25T14:08:57.193Z,97724.88
2022-11-25T14:14:23.735Z,97729.25
2022-11-25T14:19:51.682Z,97737.13
2022-11-25T14:24:57.044Z,97737.16
2022-11-25T14:30:05.245Z,97748.56
2022-11-25T14:35:12.691Z,97758.19
2022-11-25T14:40:17.122Z,97760.81
2022-11-25T14:45:27.364Z,97748.50
2022-11-25T14:50:37.989Z,97767.72
2022-11-25T14:55:41.024Z,97800.94
2022-11-25T15:00:53.602Z,97806.16
2022-11-25T15:05:57.772Z,97814.84
2022-11-25T15:11:01.875Z,97834.03
2022-11-25T15:16:09.472Z,97849.75
2022-11-25T15:21:15.059Z,97843.59
2022-11-25T15:26:19.681Z,97855.81
2022-11-25T15:31:27.527Z,97858.44
2022-11-25T15:36:30.394Z,97861.97
2022-11-25T15:41:35.294Z,97855.81
2022-11-25T15:46:39.494Z,97864.47
2022-11-25T15:51:44.500Z,97887.09
2022-11-25T15:56:50.094Z,97901.81
2022-11-25T16:01:54.197Z,97906.06
2022-11-25T16:06:57.700Z,97920.81
2022-11-25T16:12:07.492Z,97918.19
2022-11-25T16:17:12.549Z,97940.78
2022-11-25T16:22:17.135Z,97943.34
2022-11-25T16:27:23.098Z,97951.03
2022-11-25T16:32:29.106Z,97968.34
2022-11-25T16:37:31.760Z,97963.16
2022-11-25T16:42:34.795Z,97968.22
2022-11-25T16:47:38.932Z,97958.66
2022-11-25T16:52:41.680Z,97961.28
2022-11-25T16:57:44.807Z,97970.00
2022-11-25T17:02:49.091Z,97975.22
2022-11-25T17:07:52.250Z,97965.66
2022-11-25T17:12:55.713Z,97960.47
2022-11-25T17:18:00.025Z,97966.59
2022-11-25T17:23:04.037Z,97960.50
2022-11-25T17:28:07.060Z,97960.50
2022-11-25T17:33:15.281Z,97965.75
2022-11-25T17:38:20.329Z,97980.59
2022-11-25T17:43:23.326Z,97984.00
2022-11-25T17:48:27.590Z,97984.09
2022-11-25T17:53:30.296Z,97980.59
2022-11-25T17:58:33.012Z,97986.69
2022-11-25T18:03:37.170Z,97997.94
2022-11-25T18:08:40.037Z,97989.22
2022-11-25T18:13:43.862Z,98004.91
2022-11-25T18:18:48.049Z,98003.09
2022-11-25T18:23:50.848Z,98003.97
2022-11-25T18:28:53.573Z,97996.06
2022-11-25T18:33:57.691Z,97980.25
2022-11-25T18:39:00.415Z,97968.84
2022-11-25T18:44:03.411Z,97934.72
2022-11-25T18:49:13.564Z,97914.59
2022-11-25T18:54:16.346Z,97879.63
2022-11-25T18:59:24.221Z,97849.06
2022-11-25T19:04:28.267Z,97805.38
2022-11-25T19:09:30.991Z,97774.78
2022-11-25T19:14:37.335Z,97734.63
2022-11-25T19:19:42.662Z,97691.78
2022-11-25T19:24:45.942Z,97643.81
2022-11-25T19:29:49.132Z,97649.00
2022-11-25T19:34:56.298Z,97626.34
2022-11-25T19:39:59.601Z,97589.69
2022-11-25T19:45:03.416Z,97580.09
2022-11-25T19:50:09.176Z,97567.84
2022-11-25T19:55:15.281Z,97553.03
2022-11-25T20:00:19.648Z,97542.56
2022-11-25T20:05:26.976Z,97535.56
2022-11-25T20:10:31.868Z,97537.25
2022-11-25T20:15:34.736Z,97571.25
2022-11-25T20:20:41.681Z,97564.25
2022-11-25T20:25:46.281Z,97565.13
2022-11-25T20:30:49.685Z,97564.25
2022-11-25T20:36:04.584Z,97568.63
2022-11-25T20:41:07.315Z,97566.00
2022-11-25T20:46:16.176Z,97572.13
2022-11-25T20:51:21.883Z,97580.00
2022-11-25T20:56:26.849Z,97584.34
2022-11-25T21:01:29.618Z,97578.25
2022-11-25T21:06:40.601Z,97600.06
2022-11-25T21:11:43.779Z,97605.19
2022-11-25T21:16:47.002Z,97633.00
2022-11-25T21:21:52.658Z,97670.53
2022-11-25T21:26:56.205Z,97659.19
2022-11-25T21:31:59.387Z,97657.50
2022-11-25T21:37:03.937Z,97655.78
2022-11-25T21:42:08.349Z,97653.09
2022-11-25T21:47:14.064Z,97655.78
2022-11-25T21:52:18.334Z,97635.69
2022-11-25T21:57:23.900Z,97630.41
2022-11-25T22:02:28.727Z,97649.53
2022-11-25T22:07:32.899Z,97664.25
2022-11-25T22:12:41.057Z,97650.31
2022-11-25T22:17:44.679Z,97681.69
2022-11-25T22:22:48.688Z,97691.19
2022-11-25T22:27:51.621Z,97698.97
2022-11-25T22:33:01.430Z,97712.81
2022-11-25T22:38:07.414Z,97724.13
2022-11-25T22:43:14.876Z,97717.94
2022-11-25T22:48:20.288Z,97725.69
2022-11-25T22:53:25.649Z,97733.50
2022-11-25T22:58:28.943Z,97724.75
2022-11-25T23:03:34.071Z,97723.06
2022-11-25T23:08:38.636Z,97729.09
2022-11-25T23:13:41.333Z,97715.13
2022-11-25T23:18:46.535Z,97739.44
2022-11-25T23:23:50.988Z,97734.16
2022-11-25T23:28:53.713Z,97751.56
2022-11-25T23:33:56.506Z,97788.84
2022-11-25T23:39:02.434Z,97814.19
2022-11-25T23:44:13.541Z,97862.22
2022-11-25T23:49:20.546Z,97864.78
2022-11-25T23:54:25.434Z,97866.47
2022-11-25T23:59:30.982Z,97880.34
